Main page
METAR-TAF:

METAR-TAF

Airports :

Venice, Italy

Venice Marco Polo Airport

latitude: 45-30N, longitude: 012-20E, elevation: 2 m

Current weather observation

The report was made 29 minutes ago, at 08:20 UTC
Wind 6 kt from the West/Southwest, varying between Southwest and West/Northwest
Temperature 5°C
Humidity 87%
Pressure 1004 hPa
Visibility 10 km or more
no clouds below 1500 m and no cumulonimbus

METAR: LIPZ 210820Z 25006KT 230V290 CAVOK 05/03 Q1004 NOSIG

Time: 09:49 (08:49 UTC)

Forecast

The report was made 3 hours and 49 minutes ago, at 05:00 UTC
Forecast valid from 21 at 06 UTC to 22 at 12 UTC
Wind 10 kt from the West
Visibility 10 km or more
Scattered clouds at a height of 3000 ft
Becoming
from 21 at 12 UTC to 21 at 15 UTC
Wind 12 kt from the North

TAF: LIPZ 210500Z 2106/2212 27010KT 9999 SCT030 BECMG 2112/2115 01012KT

Weather observations and forecasts of more than 4000 airports (METAR and TAF reports).

The available stations are represented by yellow and red dots on the map.

Hover mouse over dot to see the name of the station.

Then click to see weather observations and forecasts.

To change the map : click on the green buttons with a black cross to zoom in, on the green button with a dash to zoom out, or on the green arrows for adjacent maps.


METAR-TAF: